Time;durP1;ratioP1;P1;durP2;ratioP2;P2;SDS_P1;SDS_P2;PMS_P1;PMS_P2;Temp;Humidity;BMP_temperature;BMP_pressure;BME280_temperature;BME280_humidity;BME280_pressure;Samples;Min_cycle;Max_cycle;Signal;HPM_P1;HPM_P2
2024/01/09 00:03:53;;;;;;;1.93;1.30;;;;;;;;;;20786683;28;20217;-66
2024/01/09 00:13:58;;;;;;;2.43;1.37;;;-2.70;99.90;;;;;;20813722;28;20218;-66
2024/01/09 00:24:00;;;;;;;1.57;1.00;;;;;;;;;;20783334;28;20280;-66
2024/01/09 00:34:02;;;;;;;1.63;1.10;;;;;;;;;;20796406;28;20273;-66
2024/01/09 00:44:04;;;;;;;1.73;1.40;;;;;;;;;;20793982;28;20218;-66
2024/01/09 00:54:05;;;;;;;2.13;1.30;;;;;;;;;;20797179;28;20619;-66
2024/01/09 01:04:07;;;;;;;2.20;1.30;;;;;;;;;;20833894;28;20276;-66
2024/01/09 01:14:09;;;;;;;2.23;1.50;;;;;;;;;;20796212;28;20711;-66
2024/01/09 01:24:11;;;;;;;1.97;0.87;;;;;;;;;;20792993;28;20296;-66
2024/01/09 01:34:13;;;;;;;1.60;1.00;;;;;;;;;;20820994;28;20210;-66
2024/01/09 01:44:17;;;;;;;1.43;1.33;;;;;;;;;;20819507;28;20352;-66
2024/01/09 01:54:21;;;;;;;1.37;1.10;;;-2.90;99.90;;;;;;20798130;28;20268;-66
2024/01/09 02:04:24;;;;;;;1.10;1.00;;;;;;;;;;20794461;28;20230;-66
2024/01/09 02:14:26;;;;;;;1.87;1.10;;;;;;;;;;20803958;28;20230;-66
2024/01/09 02:24:29;;;;;;;1.70;1.10;;;;;;;;;;20812545;28;20294;-66
2024/01/09 02:34:32;;;;;;;1.63;1.10;;;;;;;;;;20785473;28;20284;-66
2024/01/09 02:44:34;;;;;;;1.33;0.93;;;;;;;;;;20793860;28;20222;-66
2024/01/09 02:54:36;;;;;;;1.37;1.00;;;;;;;;;;20794496;28;20274;-65
2024/01/09 03:04:38;;;;;;;1.17;0.90;;;;;;;;;;20880319;22;20233;-86
2024/01/09 03:14:41;;;;;;;1.20;1.07;;;;;;;;;;20905777;28;20214;-87
2024/01/09 03:24:43;;;;;;;0.77;0.77;;;;;;;;;;20923817;28;20251;-85
2024/01/09 03:34:44;;;;;;;0.70;0.50;;;;;;;;;;20909967;28;20214;-85
2024/01/09 03:44:48;;;;;;;0.90;0.90;;;;;;;;;;20875538;28;20217;-87
2024/01/09 04:05:03;;;;;;;1.13;1.00;;;;;;;;;;21004389;27;20567;-64
2024/01/09 04:15:05;;;;;;;0.97;0.80;;;;;;;;;;20838527;28;20284;-64
2024/01/09 04:25:07;;;;;;;1.93;1.53;;;;;;;;;;20850427;28;20276;-65
2024/01/09 04:35:08;;;;;;;1.27;0.97;;;;;;;;;;20841890;28;20241;-64
2024/01/09 04:45:10;;;;;;;1.40;1.00;;;;;;;;;;20866750;28;20252;-65
2024/01/09 04:55:13;;;;;;;0.87;0.87;;;;;;;;;;20845338;28;20295;-64
2024/01/09 05:05:15;;;;;;;1.00;0.67;;;;;;;;;;20867665;28;20260;-66
2024/01/09 05:15:16;;;;;;;1.03;0.87;;;;;;;;;;20816352;28;20277;-66
2024/01/09 05:25:18;;;;;;;1.33;1.17;;;;;;;;;;20794908;28;20214;-66
2024/01/09 05:35:20;;;;;;;0.83;0.80;;;;;;;;;;20808625;28;20287;-67
2024/01/09 05:45:22;;;;;;;2.57;0.80;;;;;;;;;;20793025;28;20210;-66
2024/01/09 05:55:24;;;;;;;2.47;1.63;;;;;;;;;;20786963;28;20256;-67
2024/01/09 06:05:25;;;;;;;1.03;0.90;;;;;;;;;;20779099;28;20210;-67
2024/01/09 06:15:28;;;;;;;0.73;0.63;;;;;;;;;;20789052;28;20218;-66
2024/01/09 06:25:31;;;;;;;1.00;0.80;;;;;;;;;;20804980;28;20227;-65
2024/01/09 06:35:33;;;;;;;1.50;0.77;;;;;;;;;;20788529;28;20241;-65
2024/01/09 06:45:35;;;;;;;1.03;0.77;;;;;;;;;;20804348;28;20226;-65
2024/01/09 06:55:37;;;;;;;1.83;1.03;;;;;;;;;;20784537;28;20218;-66
2024/01/09 07:05:39;;;;;;;1.83;0.90;;;;;;;;;;20786672;28;20218;-65
2024/01/09 07:15:41;;;;;;;11.00;1.17;;;;;;;;;;20778192;28;20215;-65
2024/01/09 07:25:43;;;;;;;0.67;0.67;;;;;;;;;;20759775;28;20595;-66
2024/01/09 07:35:45;;;;;;;0.53;0.53;;;;;;;;;;20768673;28;20214;-65
2024/01/09 07:45:46;;;;;;;0.70;0.70;;;;;;;;;;20759988;28;20222;-65
2024/01/09 07:55:48;;;;;;;1.13;1.03;;;;;;;;;;20784836;28;20238;-65
2024/01/09 08:05:50;;;;;;;1.17;1.03;;;;;;;;;;20744050;28;20759;-66
2024/01/09 08:15:53;;;;;;;0.80;0.80;;;;;;;;;;20776132;28;20638;-65
2024/01/09 08:25:56;;;;;;;1.63;1.00;;;;;;;;;;20799858;28;20276;-66
2024/01/09 08:35:58;;;;;;;1.00;0.80;;;;;;;;;;20778446;28;20214;-66
2024/01/09 08:45:59;;;;;;;0.87;0.77;;;;;;;;;;20802887;28;20222;-66
2024/01/09 08:56:01;;;;;;;1.50;1.13;;;;;;;;;;20784903;28;20221;-66
2024/01/09 09:06:03;;;;;;;0.93;0.83;;;;;;;;;;20790676;22;20218;-71
2024/01/09 09:16:05;;;;;;;2.20;1.00;;;;;;;;;;20754394;28;21017;-72
2024/01/09 09:26:07;;;;;;;1.50;0.83;;;;;;;;;;20747828;28;20277;-72
2024/01/09 09:36:11;;;;;;;1.10;0.77;;;-3.30;99.90;;;;;;20740184;28;20300;-72
2024/01/09 09:46:18;;;;;;;1.27;1.03;;;;;;;;;;20762330;28;20223;-72
2024/01/09 09:56:19;;;;;;;1.43;1.10;;;;;;;;;;20757989;28;20223;-72
2024/01/09 10:06:22;;;;;;;1.93;1.27;;;;;;;;;;20753268;28;20253;-72
2024/01/09 10:16:24;;;;;;;1.60;1.03;;;;;;;;;;20732293;28;20219;-71
2024/01/09 10:26:26;;;;;;;2.03;1.30;;;-2.20;99.90;;;;;;20772247;28;20227;-72
2024/01/09 10:36:28;;;;;;;1.37;0.90;;;;;;;;;;20745079;28;20219;-73
2024/01/09 10:46:31;;;;;;;1.13;0.97;;;;;;;;;;20755235;28;20218;-73
2024/01/09 10:56:34;;;;;;;1.67;1.10;;;-2.00;99.90;;;;;;20733280;28;20230;-73
2024/01/09 11:06:36;;;;;;;1.50;0.77;;;-1.80;99.90;;;;;;20762895;28;20222;-73
2024/01/09 11:16:42;;;;;;;1.60;0.93;;;-1.90;99.90;;;;;;20734324;28;20219;-73
2024/01/09 11:26:45;;;;;;;2.47;1.77;;;;;;;;;;20730408;28;20589;-73
2024/01/09 11:36:47;;;;;;;1.63;1.03;;;;;;;;;;20732404;28;20218;-74
2024/01/09 11:46:49;;;;;;;1.20;1.00;;;;;;;;;;20728729;28;20281;-74
2024/01/09 11:56:51;;;;;;;1.00;0.83;;;;;;;;;;20731524;28;20293;-76
2024/01/09 12:06:53;;;;;;;1.93;1.30;;;;;;;;;;20761108;28;20222;-76
2024/01/09 12:16:55;;;;;;;1.33;1.00;;;;;;;;;;20734410;28;20269;-75
2024/01/09 12:26:57;;;;;;;2.10;1.53;;;;;;;;;;20780951;28;20228;-75
2024/01/09 12:37:00;;;;;;;0.87;0.83;;;;;;;;;;20757594;28;20219;-74
2024/01/09 12:47:03;;;;;;;1.30;1.10;;;;;;;;;;20775218;28;20293;-75
2024/01/09 12:57:05;;;;;;;1.53;0.93;;;;;;;;;;20758619;28;20223;-74
2024/01/09 13:07:07;;;;;;;1.83;1.00;;;-1.90;99.90;;;;;;20734851;28;20648;-74
2024/01/09 13:17:09;;;;;;;2.93;1.47;;;;;;;;;;20731871;28;20373;-74
2024/01/09 13:27:11;;;;;;;1.10;1.00;;;;;;;;;;20738278;28;20285;-73
2024/01/09 13:37:12;;;;;;;1.10;0.90;;;;;;;;;;20721604;28;20646;-73
2024/01/09 13:47:14;;;;;;;2.93;1.77;;;;;;;;;;20761172;28;20708;-72
2024/01/09 13:57:16;;;;;;;2.07;1.50;;;;;;;;;;20760135;28;20219;-72
2024/01/09 14:07:18;;;;;;;1.97;1.30;;;;;;;;;;20723512;28;20722;-72
2024/01/09 14:17:21;;;;;;;1.30;0.87;;;;;;;;;;20753064;28;20218;-71
2024/01/09 14:27:23;;;;;;;1.37;0.90;;;;;;;;;;20728656;28;20222;-71
2024/01/09 14:37:25;;;;;;;1.83;1.40;;;;;;;;;;20742037;28;20219;-71
2024/01/09 14:47:27;;;;;;;1.67;1.17;;;;;;;;;;20768363;28;20288;-71
2024/01/09 14:57:29;;;;;;;1.17;0.80;;;;;;;;;;20759066;28;20562;-71
2024/01/09 15:07:31;;;;;;;2.53;1.20;;;;;;;;;;20745580;28;20698;-71
2024/01/09 15:17:33;;;;;;;2.97;1.77;;;;;;;;;;20748001;22;20247;-84
2024/01/09 15:27:34;;;;;;;1.93;1.50;;;;;;;;;;20710566;28;20230;-85
2024/01/09 15:37:36;;;;;;;6.13;3.67;;;;;;;;;;20705987;28;20276;-85
2024/01/09 15:57:53;;;;;;;0.57;0.57;;;;;;;;;;21147328;27;20574;-66
2024/01/09 16:07:55;;;;;;;0.90;0.73;;;;;;;;;;21106179;28;20212;-66
2024/01/09 16:17:57;;;;;;;3.50;2.43;;;;;;;;;;21099899;28;20203;-67
2024/01/09 16:27:59;;;;;;;1.10;0.80;;;;;;;;;;21091515;28;20208;-66
2024/01/09 16:38:00;;;;;;;1.53;0.97;;;;;;;;;;21106201;28;20200;-66
2024/01/09 16:48:02;;;;;;;1.90;1.10;;;;;;;;;;21102514;28;20204;-65
2024/01/09 16:58:05;;;;;;;3.60;1.93;;;;;;;;;;21112630;28;20574;-67
2024/01/09 17:08:08;;;;;;;2.63;1.80;;;;;;;;;;21042500;28;20262;-66
2024/01/09 17:18:09;;;;;;;1.83;1.60;;;;;;;;;;21026074;28;20762;-67
2024/01/09 17:28:11;;;;;;;1.80;1.13;;;;;;;;;;21028939;28;20254;-67
2024/01/09 17:38:13;;;;;;;0.90;0.80;;;;;;;;;;21058396;28;20285;-67
2024/01/09 17:48:15;;;;;;;1.80;1.20;;;;;;;;;;21059407;28;20250;-67
2024/01/09 17:58:17;;;;;;;1.50;1.00;;;;;;;;;;21054022;28;20269;-68
2024/01/09 18:08:19;;;;;;;1.40;1.30;;;;;;;;;;21051506;28;20204;-68
2024/01/09 18:18:21;;;;;;;1.60;1.00;;;;;;;;;;21038654;28;20289;-67
2024/01/09 18:28:22;;;;;;;2.03;1.20;;;;;;;;;;21038801;28;20227;-67
2024/01/09 18:38:24;;;;;;;2.27;1.30;;;;;;;;;;21049400;28;20216;-67
2024/01/09 18:48:26;;;;;;;1.80;1.23;;;;;;;;;;21057281;28;20285;-68
2024/01/09 18:58:30;;;;;;;1.17;0.93;;;;;;;;;;21052751;28;20772;-67
2024/01/09 19:08:32;;;;;;;1.37;1.10;;;;;;;;;;21050019;28;20265;-67
2024/01/09 19:18:34;;;;;;;1.83;1.30;;;;;;;;;;21035327;28;20831;-67
2024/01/09 19:28:37;;;;;;;2.47;1.00;;;-2.50;99.90;;;;;;21049118;28;20224;-67
2024/01/09 19:38:40;;;;;;;1.10;0.97;;;;;;;;;;20992101;28;20274;-67
2024/01/09 19:48:42;;;;;;;1.30;1.20;;;;;;;;;;21063008;28;20292;-66
2024/01/09 19:58:45;;;;;;;1.53;1.17;;;;;;;;;;21068453;28;20563;-66
2024/01/09 20:08:48;;;;;;;0.80;0.70;;;;;;;;;;21069564;28;20212;-66
